Time;durP1;ratioP1;P1;durP2;ratioP2;P2;SDS_P1;SDS_P2;PMS_P1;PMS_P2;Temp;Humidity;BMP_temperature;BMP_pressure;BME280_temperature;BME280_humidity;BME280_pressure;Samples;Min_cycle;Max_cycle;Signal;HPM_P1;HPM_P2
2022/06/01 00:01:51;;;;;;;25.30;23.80;;;;;;;;;;5075611;28;20441;-83
2022/06/01 00:04:18;;;;;;;25.07;23.50;;;;;;;;;;5075515;28;20499;-83
2022/06/01 00:06:46;;;;;;;25.17;23.67;;;;;;;;;;5057636;28;20442;-83
2022/06/01 00:09:13;;;;;;;26.10;24.40;;;;;;;;;;5075491;28;20482;-82
2022/06/01 00:11:41;;;;;;;24.73;23.13;;;;;;;;;;5075611;28;20439;-83
2022/06/01 00:14:09;;;;;;;25.47;23.67;;;;;;;;;;5075342;28;20470;-82
2022/06/01 00:16:36;;;;;;;25.37;23.67;;;;;;;;;;5075171;28;20458;-84
2022/06/01 00:19:07;;;;;;;25.17;23.57;;;;;;;;;;5075143;28;20824;-85
2022/06/01 00:22:11;;;;;;;25.73;24.13;;;;;;;;;;5075271;28;20430;-84
2022/06/01 00:24:22;;;;;;;24.70;23.10;;;;;;;;;;5074834;28;20454;-85
2022/06/01 00:26:50;;;;;;;25.70;23.87;;;;;;;;;;5075508;28;20450;-85
2022/06/01 00:29:18;;;;;;;26.17;24.43;;;;;;;;;;5074927;28;20931;-84
2022/06/01 00:31:45;;;;;;;25.70;24.13;;;;;;;;;;5075261;28;20442;-84
2022/06/01 00:34:14;;;;;;;25.57;23.87;;;;;;;;;;5074523;28;20445;-84
2022/06/01 00:36:41;;;;;;;26.03;24.10;;;;;;;;;;5075035;28;20434;-84
2022/06/01 00:39:08;;;;;;;26.03;23.80;;;;;;;;;;5074909;28;20446;-84
2022/06/01 00:41:36;;;;;;;25.10;23.40;;;;;;;;;;5074788;28;20438;-84
2022/06/01 00:44:03;;;;;;;25.50;23.90;;;;;;;;;;5074812;28;20451;-84
2022/06/01 00:46:31;;;;;;;26.53;24.63;;;;;;;;;;5074862;28;20792;-85
2022/06/01 00:49:02;;;;;;;25.07;23.47;;;;;;;;;;5056573;28;20521;-84
2022/06/01 00:51:31;;;;;;;25.63;23.83;;;;;;;;;;5074181;28;20913;-85
2022/06/01 00:53:59;;;;;;;25.60;24.00;;;;;;;;;;5074536;28;20441;-84
2022/06/01 00:56:28;;;;;;;25.70;24.00;;;;;;;;;;5074104;28;20450;-84
2022/06/01 00:58:57;;;;;;;25.80;24.00;;;;;;;;;;5073675;28;20442;-84
2022/06/01 01:01:24;;;;;;;25.93;24.23;;;;;;;;;;5074155;28;20451;-84
2022/06/01 01:03:53;;;;;;;25.40;23.60;;;;;;;;;;5074336;28;20449;-85
2022/06/01 01:06:24;;;;;;;24.60;23.00;;;;;;;;;;5074252;28;20474;-85
2022/06/01 01:08:54;;;;;;;26.00;24.30;;;;;;;;;;5074020;28;20486;-85
2022/06/01 01:11:22;;;;;;;25.17;23.53;;;;;;;;;;5073957;28;20439;-85
2022/06/01 01:13:51;;;;;;;25.23;23.63;;;;;;;;;;5073883;28;20413;-84
2022/06/01 01:16:20;;;;;;;26.03;24.33;;;;;;;;;;5073784;28;20473;-85
2022/06/01 01:18:48;;;;;;;24.93;23.33;;;;;;;;;;5074119;28;20505;-84
2022/06/01 01:21:21;;;;;;;24.30;22.47;;;;;;;;;;5073912;28;20426;-84
2022/06/01 01:23:51;;;;;;;25.40;23.60;;;;;;;;;;5074120;28;20442;-85
2022/06/01 01:26:20;;;;;;;26.23;24.43;;;;;;;;;;5074152;28;20456;-84
2022/06/01 01:28:47;;;;;;;24.73;23.13;;;;;;;;;;5073572;28;21013;-85
2022/06/01 01:31:18;;;;;;;25.20;23.60;;;;;;;;;;5073774;28;20446;-85
2022/06/01 01:33:45;;;;;;;25.80;23.90;;;;;;;;;;5073600;28;20466;-84
2022/06/01 01:36:14;;;;;;;26.00;24.20;;;;;;;;;;5073694;28;20453;-84
2022/06/01 01:38:48;;;;;;;25.13;23.30;;;;;;;;;;5073895;28;20469;-85
2022/06/01 01:41:18;;;;;;;25.23;23.63;;;;;;;;;;5073320;28;20435;-85
2022/06/01 01:43:50;;;;;;;25.77;24.07;;;;;;;;;;5073749;28;20414;-83
2022/06/01 01:46:17;;;;;;;25.00;23.40;;;;;;;;;;5073259;28;20838;-84
2022/06/01 01:48:46;;;;;;;26.03;24.37;;;;;;;;;;5073318;28;20470;-85
2022/06/01 01:51:14;;;;;;;25.17;23.43;;;;;;;;;;5073453;28;20453;-84
2022/06/01 01:53:41;;;;;;;25.73;24.07;;;;;;;;;;5073333;28;20424;-84
2022/06/01 01:56:18;;;;;;;26.10;24.40;;;;;;;;;;5073485;28;20405;-85
2022/06/01 01:58:57;;;;;;;27.60;25.70;;;;;;;;;;5073415;28;20496;-84
2022/06/01 02:01:29;;;;;;;26.17;24.03;;;;;;;;;;5073060;28;20408;-85
2022/06/01 02:04:01;;;;;;;25.50;23.80;;;;;;;;;;5073347;28;20528;-84
2022/06/01 02:06:29;;;;;;;26.10;24.50;;;;;;;;;;5073229;28;20787;-85
2022/06/01 02:08:58;;;;;;;26.73;24.90;;;;;;;;;;5073523;28;20476;-84
2022/06/01 02:14:17;;;;;;;25.50;23.80;;;;;;;;;;5073182;28;20417;-85
2022/06/01 02:16:47;;;;;;;26.20;24.50;;;;;;;;;;5072997;28;20834;-83
2022/06/01 02:19:16;;;;;;;26.70;25.00;;;;;;;;;;5072710;28;20498;-84
2022/06/01 02:21:44;;;;;;;25.83;24.23;;;;;;;;;;5072920;28;20430;-84
2022/06/01 02:24:11;;;;;;;27.47;25.27;;;;;;;;;;5073284;28;20785;-85
2022/06/01 02:26:39;;;;;;;25.07;23.53;;;;;;;;;;5073162;28;20451;-84
2022/06/01 02:29:08;;;;;;;25.77;24.10;;;;;;;;;;5073097;28;20470;-85
2022/06/01 02:31:38;;;;;;;26.17;24.37;;;;;;;;;;5072877;28;20872;-85
2022/06/01 02:34:07;;;;;;;25.40;23.60;;;;;;;;;;5073171;28;20433;-85
2022/06/01 02:36:34;;;;;;;25.07;23.57;;;;;;;;;;5073185;28;20434;-84
2022/06/01 02:39:03;;;;;;;27.20;25.40;;;;;;;;;;5073046;28;21103;-84
2022/06/01 02:44:17;;;;;;;25.53;23.93;;;;;;;;;;5073210;28;20441;-85
2022/06/01 02:46:46;;;;;;;25.00;23.40;;;;;;;;;;5072748;28;20445;-85
2022/06/01 02:49:17;;;;;;;26.77;24.97;;;;;;;;;;5072573;28;20552;-85
2022/06/01 02:51:45;;;;;;;26.80;24.90;;;;;;;;;;5072931;28;20546;-85
2022/06/01 02:54:12;;;;;;;26.07;24.37;;;;;;;;;;5072947;28;20446;-85
2022/06/01 02:56:40;;;;;;;25.47;23.67;;;;;;;;;;5072580;28;20801;-84
2022/06/01 02:59:07;;;;;;;27.57;25.57;;;;;;;;;;5073169;28;20443;-84
2022/06/01 03:01:36;;;;;;;25.93;24.20;;;;;;;;;;5072639;28;20446;-85
2022/06/01 03:04:06;;;;;;;26.47;24.77;;;;;;;;;;5072906;28;20461;-84
2022/06/01 03:06:33;;;;;;;24.97;23.47;;;;;;;;;;5072842;28;20453;-84
2022/06/01 03:09:00;;;;;;;25.17;23.67;;;;;;;;;;5072415;28;20471;-85
2022/06/01 03:11:28;;;;;;;25.53;23.83;;;;;;;;;;5072869;28;20449;-85
2022/06/01 03:13:55;;;;;;;25.70;23.90;;;;;;;;;;5072501;28;20446;-85
2022/06/01 03:16:23;;;;;;;26.07;24.13;;;;;;;;;;5072673;28;20525;-86
2022/06/01 03:18:50;;;;;;;27.33;25.47;;;;;;;;;;5072145;28;20482;-81
2022/06/01 03:21:19;;;;;;;26.30;24.50;;;;;;;;;;5073238;28;20443;-85
2022/06/01 03:23:46;;;;;;;26.07;24.27;;;;;;;;;;5075980;28;20453;-85
2022/06/01 03:26:14;;;;;;;26.70;24.93;;;;;;;;;;5076519;28;20437;-85
2022/06/01 03:28:41;;;;;;;26.10;24.40;;;;;;;;;;5076741;28;20774;-86
2022/06/01 03:31:08;;;;;;;26.13;24.50;;;;;;;;;;5076383;28;20480;-86
2022/06/01 03:33:36;;;;;;;26.60;24.70;;;;;;;;;;5076497;28;20445;-85
2022/06/01 03:36:03;;;;;;;26.50;24.80;;;;;;;;;;5076339;28;20470;-85
2022/06/01 03:38:33;;;;;;;26.97;25.07;;;;;;;;;;5076441;28;20439;-85
2022/06/01 03:41:00;;;;;;;26.67;24.47;;;;;;;;;;5076411;28;20441;-86
2022/06/01 03:43:28;;;;;;;26.53;24.70;;;;;;;;;;5076446;28;20783;-84
2022/06/01 03:45:58;;;;;;;25.90;24.20;;;;;;;;;;5076222;28;20431;-86
2022/06/01 03:48:27;;;;;;;25.97;24.13;;;;;;;;;;5075993;28;20454;-85
2022/06/01 03:50:55;;;;;;;26.93;25.03;;;;;;;;;;5076178;28;20482;-86
2022/06/01 03:53:23;;;;;;;26.47;24.77;;;;;;;;;;5058419;28;20454;-86
2022/06/01 03:55:53;;;;;;;25.27;23.57;;;;;;;;;;5076153;28;20537;-86
2022/06/01 03:58:21;;;;;;;25.80;24.00;;;;;;;;;;5076051;28;20470;-85
2022/06/01 04:00:48;;;;;;;27.20;25.30;;;;;;;;;;5075817;28;20438;-85
2022/06/01 04:03:16;;;;;;;27.43;25.53;;;;;;;;;;5075774;28;20446;-85
2022/06/01 04:05:43;;;;;;;26.30;24.60;;;;;;;;;;5076043;28;20441;-86
2022/06/01 04:08:11;;;;;;;26.80;25.00;;;;;;;;;;5075744;28;20767;-86
2022/06/01 04:10:39;;;;;;;27.47;25.40;;;;;;;;;;5075591;28;20934;-85
2022/06/01 04:13:08;;;;;;;27.60;25.67;;;;;;;;;;5075766;28;20442;-85
2022/06/01 04:15:35;;;;;;;28.73;26.43;;;;;;;;;;5075880;28;20467;-86
2022/06/01 04:18:03;;;;;;;28.13;26.23;;;;;;;;;;5057866;28;20805;-85
2022/06/01 04:20:30;;;;;;;29.57;27.47;;;;;;;;;;5075231;28;20482;-85
2022/06/01 04:23:00;;;;;;;29.10;27.00;;;;;;;;;;5075463;28;20426;-85
2022/06/01 04:25:28;;;;;;;28.20;26.30;;;;;;;;;;5075450;28;20477;-85
2022/06/01 04:27:55;;;;;;;27.33;25.43;;;;;;;;;;5075334;28;20409;-85
2022/06/01 04:30:24;;;;;;;28.27;26.27;;;;;;;;;;5074998;28;20849;-85
2022/06/01 04:32:52;;;;;;;27.47;25.57;;;;;;;;;;5074495;28;20447;-85
2022/06/01 04:35:20;;;;;;;28.43;26.37;;;;;;;;;;5075316;28;20413;-86
2022/06/01 04:37:47;;;;;;;28.73;26.87;;;;;;;;;;5075032;28;20417;-86
2022/06/01 04:40:15;;;;;;;28.93;26.80;;;;;;;;;;5074773;28;20409;-86
2022/06/01 04:42:43;;;;;;;29.33;27.13;;;;;;;;;;5074936;28;20439;-86
2022/06/01 04:45:11;;;;;;;28.43;26.53;;;;;;;;;;5075179;28;20430;-85
2022/06/01 04:47:40;;;;;;;28.60;26.50;;;;;;;;;;5074837;28;20446;-85
2022/06/01 04:50:09;;;;;;;29.00;26.67;;;;;;;;;;5075112;28;20456;-86
2022/06/01 04:52:37;;;;;;;27.53;25.53;;;;;;;;;;5074871;28;20448;-85
2022/06/01 04:55:07;;;;;;;27.63;25.73;;;;;;;;;;5074996;28;20795;-85
2022/06/01 04:57:34;;;;;;;27.97;25.80;;;;;;;;;;5057222;28;20500;-85
2022/06/01 05:00:01;;;;;;;28.00;25.80;;;;;;;;;;5074465;28;20426;-86
2022/06/01 05:02:29;;;;;;;27.57;25.67;;;;;;;;;;5074803;28;20449;-85
2022/06/01 05:04:57;;;;;;;28.30;26.30;;;;;;;;;;5074731;28;20434;-86
2022/06/01 05:07:25;;;;;;;29.93;27.93;;;;;;;;;;5074713;28;20483;-86
2022/06/01 05:09:52;;;;;;;28.90;26.80;;;;;;;;;;5074647;28;20890;-84
2022/06/01 05:12:20;;;;;;;28.57;26.77;;;;;;;;;;5074603;28;20416;-85
2022/06/01 05:14:47;;;;;;;28.03;26.00;;;;;;;;;;5074339;28;20454;-86
2022/06/01 05:17:14;;;;;;;28.57;26.50;;;;;;;;;;5074544;28;20438;-86
2022/06/01 05:19:42;;;;;;;27.57;25.77;;;;;;;;;;5074167;28;20485;-86
2022/06/01 05:22:10;;;;;;;28.50;26.10;;;;;;;;;;5074314;28;20405;-85
2022/06/01 05:24:38;;;;;;;27.80;25.93;;;;;;;;;;5074384;28;20438;-84
2022/06/01 05:27:06;;;;;;;28.10;26.20;;;;;;;;;;5074528;28;20421;-86
2022/06/01 05:29:34;;;;;;;28.67;26.23;;;;;;;;;;5073874;28;20962;-85
2022/06/01 05:32:01;;;;;;;29.50;27.50;;;;;;;;;;5074087;28;20431;-86
2022/06/01 05:34:29;;;;;;;29.53;27.37;;;;;;;;;;5073962;28;20434;-86
2022/06/01 05:36:56;;;;;;;28.10;26.20;;;;;;;;;;5073878;28;20931;-85
2022/06/01 05:39:25;;;;;;;29.00;27.10;;;;;;;;;;5073861;28;20438;-86
2022/06/01 05:41:53;;;;;;;27.93;26.00;;;;;;;;;;5073728;28;20943;-85
2022/06/01 05:44:20;;;;;;;28.70;26.50;;;;;;;;;;5073456;28;20435;-86
2022/06/01 05:46:47;;;;;;;29.20;27.30;;;;;;;;;;5073488;28;20453;-85
2022/06/01 05:49:15;;;;;;;28.30;26.30;;;;;;;;;;5074059;28;20457;-86
2022/06/01 05:51:42;;;;;;;30.67;28.50;;;;;;;;;;5073832;28;20488;-86
2022/06/01 05:54:10;;;;;;;29.33;27.27;;;;;;;;;;5073620;28;20454;-86
2022/06/01 05:56:39;;;;;;;29.27;27.23;;;;;;;;;;5074162;28;20440;-85
2022/06/01 05:59:06;;;;;;;30.63;28.53;;;;;;;;;;5073837;28;20405;-85
2022/06/01 06:01:33;;;;;;;31.90;29.40;;;;;;;;;;5074075;28;20440;-85
2022/06/01 06:04:01;;;;;;;30.43;28.13;;;;;;;;;;5073408;28;20438;-85
2022/06/01 06:06:28;;;;;;;31.27;28.77;;;;;;;;;;5073576;28;20413;-84
2022/06/01 06:08:56;;;;;;;31.97;29.63;;;;;;;;;;5073632;28;20437;-86
2022/06/01 06:11:24;;;;;;;30.83;28.50;;;;;;;;;;5073587;28;20459;-86
2022/06/01 06:13:53;;;;;;;30.70;28.40;;;;;;;;;;5073495;28;20438;-86
2022/06/01 06:16:20;;;;;;;32.20;29.70;;;;;;;;;;5073298;28;20928;-85
2022/06/01 06:18:50;;;;;;;32.07;29.57;;;;;;;;;;5073713;28;20453;-86
2022/06/01 06:21:17;;;;;;;33.83;31.40;;;;;;;;;;5073150;28;20771;-85
2022/06/01 06:23:45;;;;;;;33.13;30.73;;;;;;;;;;5073520;28;20461;-85
2022/06/01 06:26:12;;;;;;;33.33;30.87;;;;;;;;;;5073078;28;20421;-85
2022/06/01 06:28:40;;;;;;;31.57;29.40;;;;;;;;;;5073452;28;20412;-86
2022/06/01 06:31:09;;;;;;;32.53;30.10;;;;;;;;;;5073412;28;20463;-86
2022/06/01 06:33:36;;;;;;;32.00;29.60;;;;;;;;;;5073436;28;20940;-85
2022/06/01 06:36:06;;;;;;;33.37;30.67;;;;;;;;;;5055298;28;20424;-85
2022/06/01 06:38:36;;;;;;;31.17;28.87;;;;;;;;;;5073250;28;20417;-86
2022/06/01 06:41:04;;;;;;;33.13;30.43;;;;;;;;;;5073227;28;20427;-85
2022/06/01 06:43:33;;;;;;;33.43;31.00;;;;;;;;;;5073391;28;20418;-86
2022/06/01 06:46:02;;;;;;;35.20;32.07;;;;;;;;;;5072890;28;20515;-86
2022/06/01 06:48:31;;;;;;;32.83;30.30;;;;;;;;;;5073469;28;20416;-85
2022/06/01 06:50:59;;;;;;;31.87;29.47;;;;;;;;;;5072960;28;20483;-85
2022/06/01 06:53:27;;;;;;;34.90;32.10;;;;;;;;;;5073171;28;20446;-85
2022/06/01 06:55:55;;;;;;;32.97;30.47;;;;;;;;;;5073071;28;20525;-86
2022/06/01 06:58:22;;;;;;;33.73;31.20;;;;;;;;;;5076702;28;20445;-84
2022/06/01 07:00:50;;;;;;;34.87;32.07;;;;;;;;;;5058957;28;20790;-85
2022/06/01 07:03:17;;;;;;;32.23;29.73;;;;;;;;;;5077059;28;20405;-85
2022/06/01 07:08:43;;;;;;;32.40;30.00;;;;;;;;;;4995510;28;20430;-85
2022/06/01 07:11:11;;;;;;;32.60;30.10;;;;;;;;;;4995333;28;20536;-85
2022/06/01 07:13:38;;;;;;;32.03;29.57;;;;;;;;;;4995266;28;20736;-85
2022/06/01 07:16:07;;;;;;;30.00;27.80;;;;;;;;;;4995200;28;20847;-85
2022/06/01 07:18:34;;;;;;;30.13;28.13;;;;;;;;;;4995314;28;20521;-86
2022/06/01 07:21:03;;;;;;;32.07;29.63;;;;;;;;;;4995179;28;20482;-85
2022/06/01 07:23:31;;;;;;;30.90;28.63;;;;;;;;;;4995288;28;20427;-86
2022/06/01 07:25:58;;;;;;;30.43;28.10;;;;;;;;;;4995092;28;20408;-85
2022/06/01 07:28:26;;;;;;;30.00;28.00;;;;;;;;;;4994746;28;20409;-85
2022/06/01 07:30:56;;;;;;;32.93;30.37;;;;;;;;;;4994898;28;20472;-85
2022/06/01 07:33:24;;;;;;;31.73;29.43;;;;;;;;;;4994712;28;20528;-85
2022/06/01 07:35:51;;;;;;;30.93;28.53;;;;;;;;;;4994775;28;20485;-85
2022/06/01 07:43:50;;;;;;;28.30;26.40;;;;;;;;;;5050251;28;20447;-85
2022/06/01 07:46:17;;;;;;;30.27;28.00;;;;;;;;;;5056283;28;20892;-86
2022/06/01 07:48:46;;;;;;;32.77;30.27;;;;;;;;;;5056507;28;20414;-85
2022/06/01 07:51:14;;;;;;;30.20;28.10;;;;;;;;;;5056168;28;20816;-85
2022/06/01 07:53:43;;;;;;;28.27;26.30;;;;;;;;;;5056033;28;20415;-86
2022/06/01 07:56:10;;;;;;;30.03;28.13;;;;;;;;;;5055845;28;20426;-85
2022/06/01 07:58:38;;;;;;;29.47;26.97;;;;;;;;;;5055664;28;20422;-85
2022/06/01 08:01:06;;;;;;;29.10;27.10;;;;;;;;;;5055824;28;20493;-86
2022/06/01 08:03:33;;;;;;;29.13;27.23;;;;;;;;;;5055863;28;20431;-85
2022/06/01 08:06:01;;;;;;;31.03;28.93;;;;;;;;;;5055883;28;20414;-85
2022/06/01 08:08:28;;;;;;;30.20;28.30;;;;;;;;;;5055434;28;20446;-86
2022/06/01 08:10:59;;;;;;;30.30;28.00;;;;;;;;;;5055707;28;20849;-85
2022/06/01 08:13:25;;;;;;;30.27;28.17;;;;;;;;;;5055697;28;20417;-86
2022/06/01 08:15:54;;;;;;;31.27;29.20;;;;;;;;;;5055684;28;20398;-85
2022/06/01 08:18:23;;;;;;;30.03;28.00;;;;;;;;;;5055305;28;20475;-86
2022/06/01 08:20:51;;;;;;;31.47;28.90;;;;;;;;;;5036864;28;20478;-86
2022/06/01 08:23:18;;;;;;;31.27;29.17;;;;;;;;;;5055759;28;20447;-84
2022/06/01 08:25:45;;;;;;;33.83;30.83;;;;;;;;;;5055555;28;20413;-85
2022/06/01 08:28:14;;;;;;;30.07;28.07;;;;;;;;;;5055351;28;20439;-85
2022/06/01 08:30:42;;;;;;;29.87;27.87;;;;;;;;;;5055229;28;20414;-86
2022/06/01 08:33:10;;;;;;;35.60;32.27;;;;;;;;;;5055058;28;20447;-85
2022/06/01 08:35:40;;;;;;;32.13;29.93;;;;;;;;;;5055089;28;20917;-86
2022/06/01 08:38:08;;;;;;;30.40;28.40;;;;;;;;;;5055146;28;20434;-85
2022/06/01 08:40:38;;;;;;;31.53;29.33;;;;;;;;;;5055242;28;20410;-85
2022/06/01 08:43:07;;;;;;;30.60;28.30;;;;;;;;;;5055138;28;20463;-85
2022/06/01 08:45:36;;;;;;;30.10;28.10;;;;;;;;;;5054825;28;20474;-85
2022/06/01 08:48:04;;;;;;;30.03;27.97;;;;;;;;;;5055136;28;20738;-85
2022/06/01 08:50:32;;;;;;;30.60;28.30;;;;;;;;;;5054754;28;20976;-85
2022/06/01 08:53:01;;;;;;;29.53;27.67;;;;;;;;;;5055038;28;20753;-85
2022/06/01 08:55:32;;;;;;;29.80;27.60;;;;;;;;;;5054513;28;20413;-86
2022/06/01 08:58:00;;;;;;;30.73;28.50;;;;;;;;;;5055024;28;20410;-86
2022/06/01 09:00:29;;;;;;;30.53;28.53;;;;;;;;;;5055018;28;20451;-86
2022/06/01 09:03:02;;;;;;;29.50;27.30;;;;;;;;;;5054824;28;20422;-86
2022/06/01 09:05:35;;;;;;;29.90;27.97;;;;;;;;;;5054528;28;20441;-85
2022/06/01 09:08:06;;;;;;;30.77;28.77;;;;;;;;;;5054869;28;20440;-85
2022/06/01 09:10:41;;;;;;;29.77;27.77;;;;;;;;;;5054598;28;20421;-86
2022/06/01 09:13:10;;;;;;;30.83;28.57;;;;;;;;;;5054497;28;20413;-85
2022/06/01 09:15:42;;;;;;;29.03;27.03;;;;;;;;;;5054064;28;20862;-85
2022/06/01 09:18:11;;;;;;;30.97;28.80;;;;;;;;;;5054486;28;20470;-86
2022/06/01 09:23:23;;;;;;;31.63;29.20;;;;;;;;;;5074541;28;20484;-86
2022/06/01 09:25:51;;;;;;;31.50;29.10;;;;;;;;;;5074312;28;20446;-85
2022/06/01 09:28:20;;;;;;;30.73;28.57;;;;;;;;;;5074428;28;20458;-85
2022/06/01 09:30:52;;;;;;;31.03;28.90;;;;;;;;;;5073868;28;20441;-86
2022/06/01 09:33:25;;;;;;;32.00;29.70;;;;;;;;;;5073782;28;20435;-85
2022/06/01 09:36:15;;;;;;;31.47;29.07;;;;;;;;;;5074412;28;20444;-86
2022/06/01 09:38:43;;;;;;;33.90;31.40;;;;;;;;;;5074570;28;20433;-85
2022/06/01 09:41:11;;;;;;;31.80;29.70;;;;;;;;;;5074267;28;20458;-86
2022/06/01 09:43:40;;;;;;;32.77;30.37;;;;;;;;;;5074143;28;20452;-84
2022/06/01 09:46:08;;;;;;;31.00;28.83;;;;;;;;;;5074041;28;20469;-85
2022/06/01 09:48:39;;;;;;;32.47;30.07;;;;;;;;;;5073617;28;20913;-86
2022/06/01 09:51:14;;;;;;;32.83;30.30;;;;;;;;;;5074110;28;20465;-86
2022/06/01 09:53:42;;;;;;;30.57;28.47;;;;;;;;;;5074038;28;20886;-86
2022/06/01 09:56:10;;;;;;;32.20;30.10;;;;;;;;;;5073566;28;20414;-85
2022/06/01 10:07:01;;;;;;;32.00;29.70;;;;;;;;;;5073579;28;20463;-85
2022/06/01 10:09:30;;;;;;;29.17;27.27;;;;;;;;;;5073795;28;20474;-85
2022/06/01 10:11:58;;;;;;;33.83;31.43;;;;;;;;;;5073430;28;20456;-85
2022/06/01 10:14:27;;;;;;;31.93;29.57;;;;;;;;;;5073795;28;20441;-85
2022/06/01 10:17:15;;;;;;;31.57;29.40;;;;;;;;;;5073253;28;20930;-86
2022/06/01 10:19:47;;;;;;;31.60;29.40;;;;;;;;;;5069143;28;20486;-85
2022/06/01 10:22:19;;;;;;;32.87;30.57;;;;;;;;;;5073316;28;20875;-86
2022/06/01 10:24:49;;;;;;;34.57;31.87;;;;;;;;;;5073172;28;20861;-86
2022/06/01 10:27:18;;;;;;;33.53;31.07;;;;;;;;;;5073463;28;20412;-86
2022/06/01 10:29:48;;;;;;;33.63;31.37;;;;;;;;;;5073189;28;20413;-85
2022/06/01 10:32:19;;;;;;;32.37;30.07;;;;;;;;;;5075277;28;20467;-85
2022/06/01 10:34:50;;;;;;;31.30;29.17;;;;;;;;;;5077539;28;20421;-86
2022/06/01 10:37:20;;;;;;;30.77;28.60;;;;;;;;;;5077616;28;20798;-85
2022/06/01 10:39:51;;;;;;;34.23;31.83;;;;;;;;;;5077659;28;20434;-85
2022/06/01 10:42:21;;;;;;;32.83;30.53;;;;;;;;;;5077323;28;20434;-85
2022/06/01 10:44:50;;;;;;;31.90;29.50;;;;;;;;;;5077419;28;20416;-84
2022/06/01 10:47:19;;;;;;;27.87;25.97;;;;;;;;;;5077487;28;20408;-82
2022/06/01 10:49:51;;;;;;;28.50;26.60;;;;;;;;;;5077323;28;20442;-84
2022/06/01 10:52:24;;;;;;;26.40;24.80;;;;;;;;;;5077221;28;20860;-85
2022/06/01 10:54:58;;;;;;;26.97;25.27;;;;;;;;;;5077109;28;20434;-83
2022/06/01 10:57:25;;;;;;;25.07;23.37;;;;;;;;;;5077359;28;20470;-83
2022/06/01 10:59:52;;;;;;;27.27;25.57;;;;;;;;;;5077321;28;20417;-83
2022/06/01 11:02:40;;;;;;;25.30;23.60;;;;;;;;;;5076887;28;20427;-84
2022/06/01 11:05:15;;;;;;;25.33;23.53;;;;;;;;;;5076942;28;20405;-83
2022/06/01 11:07:57;;;;;;;28.37;26.57;;;;;;;;;;5076979;28;20407;-83
2022/06/01 11:10:28;;;;;;;25.03;23.53;;;;;;;;;;5076988;28;20802;-83
2022/06/01 11:13:03;;;;;;;23.87;22.30;;;;;;;;;;5076765;28;20459;-84
2022/06/01 11:15:36;;;;;;;23.37;21.80;;;;;;;;;;5076590;28;20412;-83
2022/06/01 11:18:06;;;;;;;23.20;21.80;;;;;;;;;;5076607;28;20466;-84
2022/06/01 11:20:48;;;;;;;23.37;21.97;;;;;;;;;;5076674;28;20478;-84
2022/06/01 11:23:25;;;;;;;23.33;22.03;;;;;;;;;;5076664;28;20415;-84
2022/06/01 11:25:57;;;;;;;23.47;22.07;;;;;;;;;;5076153;28;20438;-84
2022/06/01 11:28:29;;;;;;;25.17;23.67;;;;;;;;;;5076308;28;20931;-82
2022/06/01 11:31:07;;;;;;;25.00;23.37;;;;;;;;;;5076626;28;20436;-83
2022/06/01 11:33:36;;;;;;;24.47;23.00;;;;;;;;;;5076264;28;20485;-84
2022/06/01 11:36:06;;;;;;;23.93;22.50;;;;;;;;;;5076369;28;20438;-84
2022/06/01 11:38:37;;;;;;;24.77;22.80;;;;;;;;;;5076481;28;20438;-83
2022/06/01 11:41:06;;;;;;;23.50;22.10;;;;;;;;;;5076457;28;20461;-84
2022/06/01 11:43:38;;;;;;;22.87;21.47;;;;;;;;;;5075800;28;20793;-83
2022/06/01 11:46:10;;;;;;;23.67;22.30;;;;;;;;;;5076338;28;20517;-84
2022/06/01 11:48:39;;;;;;;23.50;22.10;;;;;;;;;;5076068;28;20446;-84
2022/06/01 11:51:14;;;;;;;24.20;22.60;;;;;;;;;;5076087;28;20521;-83
2022/06/01 11:53:56;;;;;;;23.93;22.40;;;;;;;;;;5058085;28;20493;-84
2022/06/01 11:56:25;;;;;;;23.80;22.17;;;;;;;;;;5076120;28;20413;-84
2022/06/01 11:59:05;;;;;;;23.80;22.10;;;;;;;;;;5076022;28;20446;-84
2022/06/01 12:01:37;;;;;;;24.37;22.87;;;;;;;;;;5075971;28;20442;-83
2022/06/01 12:04:19;;;;;;;24.00;22.50;;;;;;;;;;5075557;28;20917;-84
2022/06/01 12:06:50;;;;;;;23.87;22.37;;;;;;;;;;5075791;28;20474;-83
2022/06/01 12:09:28;;;;;;;24.23;22.83;;;;;;;;;;5075820;28;20434;-83
2022/06/01 12:11:55;;;;;;;25.40;23.90;;;;;;;;;;5075861;28;20448;-83
2022/06/01 12:14:30;;;;;;;24.03;22.63;;;;;;;;;;5075571;28;20886;-83
2022/06/01 12:17:16;;;;;;;25.53;24.03;;;;;;;;;;5075454;28;20736;-84
2022/06/01 12:19:45;;;;;;;25.07;23.43;;;;;;;;;;5075050;28;20991;-83
2022/06/01 12:30:51;;;;;;;24.33;22.80;;;;;;;;;;5075384;28;20381;-83
2022/06/01 12:33:18;;;;;;;25.60;24.10;;;;;;;;;;5075218;28;20468;-83
2022/06/01 12:35:48;;;;;;;25.40;23.90;;;;;;;;;;5075208;28;20421;-83
2022/06/01 12:38:19;;;;;;;25.10;23.70;;;;;;;;;;5075035;28;20442;-84
2022/06/01 12:40:57;;;;;;;25.80;24.10;;;;;;;;;;5075387;28;20771;-84
2022/06/01 12:43:24;;;;;;;23.33;21.93;;;;;;;;;;5075026;28;20416;-84
2022/06/01 12:45:54;;;;;;;25.00;23.50;;;;;;;;;;5074747;28;20412;-84
2022/06/01 12:48:23;;;;;;;25.67;24.17;;;;;;;;;;5075018;28;20442;-84
2022/06/01 12:50:52;;;;;;;26.40;24.73;;;;;;;;;;5075004;28;20424;-83
2022/06/01 12:53:21;;;;;;;27.20;25.50;;;;;;;;;;5074732;28;20478;-84
2022/06/01 12:55:49;;;;;;;25.40;23.90;;;;;;;;;;5073919;28;20906;-84
2022/06/01 12:58:20;;;;;;;24.97;23.53;;;;;;;;;;5074909;28;20454;-84
2022/06/01 13:00:52;;;;;;;27.10;25.47;;;;;;;;;;5075105;28;20417;-84
2022/06/01 13:03:21;;;;;;;28.87;27.33;;;;;;;;;;5074574;28;20445;-83
2022/06/01 13:05:52;;;;;;;33.33;31.43;;;;;;;;;;5074644;28;20911;-83
2022/06/01 13:08:22;;;;;;;31.27;29.27;;;;;;;;;;5074307;28;20887;-83
2022/06/01 13:10:50;;;;;;;35.60;33.30;;;;;;;;;;5074535;28;20761;-83
2022/06/01 13:13:20;;;;;;;36.60;34.20;;;;;;;;;;5074381;28;21121;-83
2022/06/01 13:15:55;;;;;;;36.10;33.70;;;;;;;;;;5074335;28;20768;-83
2022/06/01 13:18:27;;;;;;;35.20;33.10;;;;;;;;;;5074063;28;20481;-83
2022/06/01 13:20:57;;;;;;;37.23;35.03;;;;;;;;;;5074070;28;20448;-83
2022/06/01 13:23:28;;;;;;;39.13;36.80;;;;;;;;;;5074103;28;20417;-84
2022/06/01 13:25:56;;;;;;;40.50;37.80;;;;;;;;;;5056081;28;20421;-83
2022/06/01 13:28:25;;;;;;;35.30;33.30;;;;;;;;;;5074318;28;20458;-83
2022/06/01 13:30:53;;;;;;;37.90;35.70;;;;;;;;;;5073873;28;20920;-82
2022/06/01 13:33:25;;;;;;;32.80;30.90;;;;;;;;;;5073632;28;20461;-84
2022/06/01 13:35:57;;;;;;;33.07;31.27;;;;;;;;;;5073807;28;20883;-83
2022/06/01 13:38:28;;;;;;;30.53;28.83;;;;;;;;;;5074241;28;20434;-83
2022/06/01 13:40:57;;;;;;;30.87;29.27;;;;;;;;;;5073817;28;20405;-83
2022/06/01 13:43:28;;;;;;;29.53;27.83;;;;;;;;;;5073505;28;20406;-83
2022/06/01 13:45:57;;;;;;;28.40;26.80;;;;;;;;;;5074020;28;20428;-84
2022/06/01 13:48:30;;;;;;;29.83;28.10;;;;;;;;;;5073946;28;20409;-84
2022/06/01 13:50:57;;;;;;;27.73;25.87;;;;;;;;;;5073640;28;20420;-85
2022/06/01 13:53:31;;;;;;;28.50;26.73;;;;;;;;;;5073384;28;20519;-84
2022/06/01 13:56:02;;;;;;;26.70;25.00;;;;;;;;;;5074056;28;20935;-84
2022/06/01 13:58:53;;;;;;;25.60;24.20;;;;;;;;;;5073819;28;20455;-83
2022/06/01 14:01:30;;;;;;;23.97;22.57;;;;;;;;;;5073629;28;20443;-84
2022/06/01 14:03:59;;;;;;;22.20;20.97;;;;;;;;;;5073399;28;20449;-82
2022/06/01 14:06:35;;;;;;;22.90;21.50;;;;;;;;;;5055684;28;20410;-83
2022/06/01 14:09:04;;;;;;;21.77;20.67;;;;;;;;;;5055473;28;20417;-83
2022/06/01 14:11:32;;;;;;;21.63;20.23;;;;;;;;;;5073113;28;20963;-83
2022/06/01 14:14:04;;;;;;;21.70;20.60;;;;;;;;;;5073213;28;20522;-83
2022/06/01 14:16:33;;;;;;;21.50;20.40;;;;;;;;;;5073444;28;20404;-83
2022/06/01 14:19:01;;;;;;;23.00;21.80;;;;;;;;;;5073246;28;20440;-83
2022/06/01 14:21:29;;;;;;;22.17;21.07;;;;;;;;;;5073610;28;20465;-83
2022/06/01 14:23:56;;;;;;;21.10;20.00;;;;;;;;;;5073320;28;20413;-83
2022/06/01 14:29:10;;;;;;;21.90;20.70;;;;;;;;;;5073094;28;20788;-83
2022/06/01 14:31:38;;;;;;;25.47;23.77;;;;;;;;;;5073501;28;20405;-83
2022/06/01 14:34:07;;;;;;;23.67;22.30;;;;;;;;;;5072750;28;20477;-82
2022/06/01 14:36:34;;;;;;;23.97;22.47;;;;;;;;;;5072745;28;21159;-82
2022/06/01 14:39:02;;;;;;;24.63;23.03;;;;;;;;;;5054788;28;20450;-82
2022/06/01 14:41:31;;;;;;;24.30;22.90;;;;;;;;;;5072731;28;20948;-82
2022/06/01 14:43:59;;;;;;;26.70;25.10;;;;;;;;;;5072764;28;20405;-82
2022/06/01 14:46:28;;;;;;;27.90;26.20;;;;;;;;;;5072663;28;20485;-82
2022/06/01 14:48:56;;;;;;;28.47;26.87;;;;;;;;;;5072866;28;20775;-82
2022/06/01 14:51:25;;;;;;;30.67;28.87;;;;;;;;;;5072914;28;20453;-81
2022/06/01 14:53:52;;;;;;;28.23;26.60;;;;;;;;;;5072456;28;20482;-82
2022/06/01 14:56:20;;;;;;;34.80;32.80;;;;;;;;;;5072963;28;20461;-82
2022/06/01 14:58:48;;;;;;;33.17;31.27;;;;;;;;;;5072896;28;20458;-82
2022/06/01 15:01:16;;;;;;;32.50;30.23;;;;;;;;;;5072428;28;20446;-82
2022/06/01 15:03:46;;;;;;;31.73;29.93;;;;;;;;;;5054704;28;20413;-82
2022/06/01 15:06:14;;;;;;;30.57;28.83;;;;;;;;;;5072702;28;20952;-82